createdAt,value
2023-02-27T00:02:13.109Z,76.55
2023-02-27T00:04:39.808Z,76.09
2023-02-27T00:07:07.402Z,74.86
2023-02-27T00:09:34.095Z,74.82
2023-02-27T00:12:00.731Z,75.39
2023-02-27T00:14:27.490Z,76.09
2023-02-27T00:16:54.448Z,76.13
2023-02-27T00:19:21.998Z,76.47
2023-02-27T00:21:48.570Z,76.62
2023-02-27T00:24:15.264Z,76.51
2023-02-27T00:26:42.135Z,76.60
2023-02-27T00:29:08.755Z,76.12
2023-02-27T00:31:35.382Z,77.63
2023-02-27T00:34:02.203Z,77.37
2023-02-27T00:36:29.351Z,76.37
2023-02-27T00:38:56.073Z,76.33
2023-02-27T00:41:22.659Z,77.25
2023-02-27T00:43:49.297Z,78.01
2023-02-27T00:46:17.427Z,79.12
2023-02-27T00:48:44.129Z,78.47
2023-02-27T00:51:10.815Z,77.53
2023-02-27T00:53:37.416Z,77.88
2023-02-27T00:56:04.634Z,78.72
2023-02-27T00:58:31.366Z,79.63
2023-02-27T01:01:00.328Z,78.21
2023-02-27T01:03:26.936Z,77.12
2023-02-27T01:05:53.802Z,78.46
2023-02-27T01:08:20.892Z,78.90
2023-02-27T01:10:47.552Z,79.43
2023-02-27T01:13:14.228Z,78.43
2023-02-27T01:15:40.872Z,80.21
2023-02-27T01:18:07.596Z,80.50
2023-02-27T01:20:34.191Z,80.99
2023-02-27T01:23:01.148Z,80.01
2023-02-27T01:25:27.724Z,79.59
2023-02-27T01:27:54.496Z,81.02
2023-02-27T01:30:21.375Z,80.87
2023-02-27T01:32:48.080Z,81.84
2023-02-27T01:35:14.849Z,81.94
2023-02-27T01:37:41.801Z,80.86
2023-02-27T01:40:11.504Z,81.63
2023-02-27T01:42:38.173Z,81.83
2023-02-27T01:45:28.737Z,81.98
2023-02-27T01:48:39.802Z,82.80
2023-02-27T01:51:13.458Z,84.13
2023-02-27T01:53:41.970Z,85.07
2023-02-27T01:56:16.446Z,85.13
2023-02-27T01:58:43.475Z,85.59
2023-02-27T02:01:10.339Z,85.27
2023-02-27T02:03:48.945Z,85.72
2023-02-27T02:06:15.921Z,85.98
2023-02-27T02:08:45.618Z,86.39
2023-02-27T02:11:14.149Z,85.69
2023-02-27T02:13:41.640Z,85.86
2023-02-27T02:16:54.955Z,86.38
2023-02-27T02:20:06.430Z,86.89
2023-02-27T02:23:03.200Z,85.80
2023-02-27T02:26:11.826Z,86.69
2023-02-27T02:29:30.081Z,86.69
2023-02-27T02:32:15.080Z,86.94
2023-02-27T02:35:19.273Z,87.97
2023-02-27T02:38:04.603Z,88.93
2023-02-27T02:41:03.904Z,88.24
2023-02-27T02:43:49.033Z,88.75
2023-02-27T02:46:31.364Z,89.80
2023-02-27T02:49:11.897Z,87.61
2023-02-27T02:52:01.674Z,87.29
2023-02-27T02:54:48.616Z,87.91
2023-02-27T02:57:20.009Z,88.25
2023-02-27T03:00:10.971Z,88.73
2023-02-27T03:02:46.784Z,88.51
2023-02-27T03:05:33.092Z,88.81
2023-02-27T03:08:04.471Z,89.49
2023-02-27T03:10:50.118Z,89.26
2023-02-27T03:13:29.635Z,89.57
2023-02-27T03:16:21.859Z,89.86
2023-02-27T03:18:59.104Z,90.25
2023-02-27T03:21:47.066Z,89.79
2023-02-27T03:24:19.973Z,89.78
2023-02-27T03:26:48.249Z,90.37
2023-02-27T03:29:42.768Z,89.76
2023-02-27T03:32:21.578Z,91.07
2023-02-27T03:34:48.432Z,90.99
2023-02-27T03:38:02.826Z,91.15
2023-02-27T03:40:37.063Z,90.08
2023-02-27T03:43:41.929Z,90.30
2023-02-27T03:46:17.970Z,90.58
2023-02-27T03:48:45.997Z,89.98
2023-02-27T03:51:14.879Z,89.72
2023-02-27T03:53:51.105Z,90.00
2023-02-27T03:56:21.660Z,90.47
2023-02-27T03:58:48.289Z,89.35
2023-02-27T04:01:14.905Z,90.37
2023-02-27T04:03:45.970Z,90.57
2023-02-27T04:06:31.164Z,89.63
2023-02-27T04:09:09.108Z,90.00
2023-02-27T04:12:04.168Z,90.93
2023-02-27T04:15:17.064Z,90.49
2023-02-27T04:18:01.907Z,91.05
2023-02-27T04:20:39.508Z,91.93
2023-02-27T04:23:34.595Z,92.44
2023-02-27T04:26:37.034Z,92.58
2023-02-27T04:29:33.408Z,91.19
2023-02-27T04:32:03.703Z,92.22
2023-02-27T04:34:39.328Z,91.86
2023-02-27T04:37:16.071Z,92.58
2023-02-27T04:40:08.200Z,92.48
2023-02-27T04:42:38.749Z,92.93
2023-02-27T04:45:08.596Z,93.37
2023-02-27T04:47:40.828Z,94.17
2023-02-27T04:50:14.540Z,93.38
2023-02-27T04:52:45.274Z,93.43
2023-02-27T04:55:25.594Z,92.92
2023-02-27T04:57:57.883Z,94.15
2023-02-27T05:00:25.802Z,94.50
2023-02-27T05:02:56.878Z,94.09
2023-02-27T05:05:26.693Z,94.00
2023-02-27T05:08:21.690Z,93.53
2023-02-27T05:10:59.112Z,94.27
2023-02-27T05:13:32.647Z,94.48
2023-02-27T05:16:10.109Z,94.37
2023-02-27T05:18:37.290Z,95.90
2023-02-27T05:21:16.380Z,96.11
2023-02-27T05:23:56.495Z,95.72
2023-02-27T05:27:02.591Z,95.51
2023-02-27T05:29:36.821Z,96.14
2023-02-27T05:32:28.676Z,96.69
2023-02-27T05:35:20.567Z,96.52
2023-02-27T05:37:52.342Z,96.59
2023-02-27T05:40:23.647Z,96.42
2023-02-27T05:43:00.730Z,96.11
2023-02-27T05:45:30.049Z,95.62
2023-02-27T05:48:01.139Z,95.79
2023-02-27T05:50:31.007Z,96.12
2023-02-27T05:53:00.633Z,96.35
2023-02-27T05:55:32.945Z,95.79
2023-02-27T05:58:27.068Z,96.07
2023-02-27T06:01:05.693Z,95.67
2023-02-27T06:03:34.495Z,95.88
2023-02-27T06:06:03.834Z,96.03
2023-02-27T06:08:30.554Z,96.22
2023-02-27T06:10:57.310Z,95.96
2023-02-27T06:13:24.631Z,96.21
2023-02-27T06:15:51.169Z,97.18
2023-02-27T06:18:18.758Z,99.67
2023-02-27T06:20:46.702Z,99.75
2023-02-27T06:23:14.105Z,99.15
2023-02-27T06:25:42.403Z,98.36
2023-02-27T06:28:09.983Z,97.28
2023-02-27T06:30:37.051Z,97.24
2023-02-27T06:33:04.348Z,96.66
2023-02-27T06:35:31.309Z,97.57
2023-02-27T06:37:58.035Z,97.04
2023-02-27T06:40:25.080Z,96.58
2023-02-27T06:42:51.845Z,97.89
2023-02-27T06:45:18.886Z,97.97
2023-02-27T06:47:45.723Z,98.15
2023-02-27T06:50:13.520Z,98.19
2023-02-27T06:52:40.520Z,97.61
2023-02-27T06:55:08.927Z,96.71
2023-02-27T06:57:36.354Z,96.95
2023-02-27T07:00:04.785Z,96.90
2023-02-27T07:02:31.846Z,97.02
2023-02-27T07:04:58.530Z,97.08
2023-02-27T07:07:34.791Z,97.61
2023-02-27T07:10:05.578Z,98.22
2023-02-27T07:12:32.203Z,99.08
2023-02-27T07:14:59.251Z,99.29
2023-02-27T07:17:26.100Z,98.63
2023-02-27T07:19:52.894Z,97.88
2023-02-27T07:22:19.684Z,98.04
2023-02-27T07:24:46.385Z,97.55
2023-02-27T07:27:13.032Z,96.55
2023-02-27T07:29:39.666Z,95.27
2023-02-27T07:32:06.461Z,94.83
2023-02-27T07:34:33.243Z,96.12
2023-02-27T07:36:59.988Z,95.80
2023-02-27T07:39:26.878Z,95.27
2023-02-27T07:41:53.473Z,94.96
2023-02-27T07:44:20.078Z,95.17
2023-02-27T07:46:47.621Z,95.04
2023-02-27T07:49:14.569Z,93.46
2023-02-27T07:51:41.413Z,92.00
2023-02-27T07:54:08.348Z,91.62
2023-02-27T07:56:35.037Z,90.86
2023-02-27T07:59:01.759Z,89.03
2023-02-27T08:01:28.737Z,90.40
2023-02-27T08:03:56.629Z,89.74
2023-02-27T08:06:24.135Z,89.38
2023-02-27T08:08:51.905Z,89.05
2023-02-27T08:11:19.219Z,88.33
2023-02-27T08:14:02.936Z,88.26
2023-02-27T08:16:31.599Z,88.81
2023-02-27T08:18:59.262Z,85.66
2023-02-27T08:21:26.763Z,84.90
2023-02-27T08:23:54.705Z,82.71
2023-02-27T08:26:21.606Z,80.33
2023-02-27T08:28:48.478Z,80.94
2023-02-27T08:31:15.333Z,80.05
2023-02-27T08:33:42.128Z,79.84
2023-02-27T08:36:10.590Z,79.31
2023-02-27T08:38:39.442Z,79.63
2023-02-27T08:41:06.068Z,78.78
2023-02-27T08:43:33.075Z,77.66
2023-02-27T08:46:00.012Z,77.67
2023-02-27T08:48:26.722Z,77.70
2023-02-27T08:50:53.520Z,78.32
2023-02-27T08:53:20.205Z,76.50
2023-02-27T08:55:53.991Z,77.49
2023-02-27T08:58:20.892Z,77.18
2023-02-27T09:00:47.461Z,75.66
2023-02-27T09:03:14.150Z,76.55
2023-02-27T09:05:42.156Z,75.06
2023-02-27T09:08:08.861Z,74.39
2023-02-27T09:10:35.597Z,75.19
2023-02-27T09:13:02.464Z,75.33
2023-02-27T09:15:30.325Z,74.95
2023-02-27T09:18:02.599Z,74.22
2023-02-27T09:20:31.929Z,72.53
2023-02-27T09:22:59.857Z,71.22
2023-02-27T09:25:27.278Z,71.87
2023-02-27T09:27:54.122Z,71.80
2023-02-27T09:30:20.944Z,70.61
2023-02-27T09:32:47.790Z,70.48
2023-02-27T09:35:16.064Z,69.91
2023-02-27T09:37:44.067Z,70.90
2023-02-27T09:40:25.861Z,69.55
2023-02-27T09:42:54.703Z,71.34
2023-02-27T09:45:24.445Z,70.42
2023-02-27T09:47:54.063Z,71.51
2023-02-27T09:50:50.297Z,71.24
2023-02-27T09:53:37.574Z,69.63
2023-02-27T09:56:08.332Z,70.45
2023-02-27T09:59:09.445Z,68.77
2023-02-27T10:02:08.833Z,69.38
2023-02-27T10:04:54.439Z,68.77
2023-02-27T10:07:37.160Z,68.88
2023-02-27T10:10:09.929Z,67.06
2023-02-27T10:12:49.230Z,68.68
2023-02-27T10:15:26.688Z,68.78
2023-02-27T10:17:57.022Z,67.45
2023-02-27T10:20:29.702Z,66.81
2023-02-27T10:22:59.929Z,67.02
2023-02-27T10:25:31.555Z,68.27
2023-02-27T10:28:18.241Z,67.82
2023-02-27T10:30:52.814Z,69.39
2023-02-27T10:33:28.593Z,68.89
2023-02-27T10:35:58.403Z,70.28
2023-02-27T10:38:34.467Z,68.23
2023-02-27T10:41:02.485Z,68.62
2023-02-27T10:43:29.650Z,69.78
2023-02-27T10:45:56.817Z,69.94
2023-02-27T10:48:23.921Z,68.54
2023-02-27T10:50:53.887Z,69.07
2023-02-27T10:53:25.702Z,69.33
2023-02-27T10:56:04.222Z,68.40
2023-02-27T10:58:34.637Z,69.50
2023-02-27T11:01:04.417Z,70.74
2023-02-27T11:03:39.316Z,68.81
2023-02-27T11:06:34.062Z,69.14
2023-02-27T11:09:24.159Z,67.51
2023-02-27T11:11:51.954Z,69.36
2023-02-27T11:14:29.494Z,68.53
2023-02-27T11:17:05.042Z,67.97
2023-02-27T11:19:37.100Z,68.83
2023-02-27T11:22:07.224Z,69.47
2023-02-27T11:24:34.366Z,68.96
2023-02-27T11:27:18.001Z,65.98
2023-02-27T11:30:27.775Z,66.04
2023-02-27T11:32:57.348Z,66.95
2023-02-27T11:35:38.844Z,66.90
2023-02-27T11:38:19.012Z,66.53
2023-02-27T11:40:54.622Z,65.04
2023-02-27T11:43:24.421Z,66.48
2023-02-27T11:46:05.178Z,66.93
2023-02-27T11:48:51.111Z,67.07
2023-02-27T11:51:29.724Z,67.71
2023-02-27T11:54:06.553Z,65.22
2023-02-27T11:56:40.342Z,65.31
2023-02-27T11:59:18.228Z,66.45
2023-02-27T12:02:25.802Z,67.66
2023-02-27T12:04:57.075Z,66.78
2023-02-27T12:07:34.027Z,68.32
2023-02-27T12:10:27.482Z,68.96
2023-02-27T12:13:04.533Z,67.95
2023-02-27T12:15:56.233Z,69.17
2023-02-27T12:18:38.074Z,68.64
2023-02-27T12:21:07.891Z,68.99
2023-02-27T12:23:40.818Z,68.01
2023-02-27T12:26:11.830Z,69.67
2023-02-27T12:29:34.067Z,69.37
2023-02-27T12:32:03.657Z,70.63
2023-02-27T12:34:39.384Z,70.19
2023-02-27T12:37:11.332Z,67.84
2023-02-27T12:39:38.874Z,67.67
2023-02-27T12:42:27.496Z,67.78
2023-02-27T12:45:43.095Z,67.61
2023-02-27T12:48:42.805Z,67.54
2023-02-27T12:51:21.474Z,67.41
2023-02-27T12:54:20.145Z,66.86
2023-02-27T12:57:25.616Z,68.36
2023-02-27T13:00:00.321Z,68.07
2023-02-27T13:02:47.564Z,69.72
2023-02-27T13:05:39.421Z,68.86
2023-02-27T13:08:39.556Z,71.03
2023-02-27T13:11:32.873Z,67.35
2023-02-27T13:14:15.595Z,65.15
2023-02-27T13:16:46.941Z,66.31
2023-02-27T13:19:24.683Z,66.05
2023-02-27T13:21:55.125Z,65.93
2023-02-27T13:24:27.231Z,66.73
2023-02-27T13:27:01.225Z,68.14
2023-02-27T13:29:37.697Z,67.16
2023-02-27T13:32:21.612Z,67.38
2023-02-27T13:34:57.789Z,67.46
2023-02-27T13:37:24.754Z,67.20
2023-02-27T13:39:53.614Z,66.77
2023-02-27T13:42:46.628Z,67.86
2023-02-27T13:46:07.476Z,67.79
2023-02-27T13:48:40.336Z,68.09
2023-02-27T13:51:10.953Z,66.62
2023-02-27T13:53:38.113Z,68.93
2023-02-27T13:56:24.024Z,68.61
2023-02-27T13:58:51.279Z,68.11
2023-02-27T14:01:24.136Z,68.58
2023-02-27T14:03:56.798Z,68.70
2023-02-27T14:06:27.531Z,69.29
2023-02-27T14:09:08.802Z,69.20
2023-02-27T14:11:41.031Z,68.64
2023-02-27T14:14:10.006Z,70.66
2023-02-27T14:16:55.039Z,69.39
2023-02-27T14:19:48.318Z,68.65
2023-02-27T14:22:35.273Z,70.91
2023-02-27T14:25:08.803Z,69.08
2023-02-27T14:27:50.321Z,69.99
2023-02-27T14:30:51.439Z,70.29
2023-02-27T14:33:39.549Z,71.00
2023-02-27T14:36:29.703Z,71.03
2023-02-27T14:39:00.271Z,68.95
2023-02-27T14:41:52.734Z,69.66
2023-02-27T14:44:21.951Z,70.15
2023-02-27T14:46:49.697Z,69.93
2023-02-27T14:49:18.280Z,69.77
2023-02-27T14:51:45.479Z,70.54
2023-02-27T14:54:21.022Z,70.48
2023-02-27T14:56:58.367Z,70.72
2023-02-27T14:59:36.993Z,69.61
2023-02-27T15:02:04.655Z,70.27
2023-02-27T15:04:33.063Z,71.03
2023-02-27T15:07:00.856Z,70.28
2023-02-27T15:09:49.370Z,69.95
2023-02-27T15:12:21.054Z,70.62
2023-02-27T15:14:51.040Z,70.10
2023-02-27T15:17:26.135Z,70.80
2023-02-27T15:19:56.019Z,71.42
2023-02-27T15:22:38.427Z,71.59
2023-02-27T15:25:08.188Z,72.19
2023-02-27T15:27:37.270Z,72.79
2023-02-27T15:30:05.261Z,73.63
2023-02-27T15:32:42.168Z,74.91
2023-02-27T15:35:15.943Z,74.64
2023-02-27T15:37:48.256Z,74.61
2023-02-27T15:40:20.650Z,74.60
2023-02-27T15:42:47.924Z,75.04
2023-02-27T15:45:22.445Z,75.33
2023-02-27T15:47:49.384Z,75.14
2023-02-27T15:50:27.525Z,75.08
2023-02-27T15:53:09.917Z,76.35
2023-02-27T15:55:54.407Z,76.16
2023-02-27T15:58:22.605Z,76.09
2023-02-27T16:00:53.263Z,76.36
2023-02-27T16:03:24.000Z,76.06
2023-02-27T16:05:52.234Z,76.58
2023-02-27T16:08:20.392Z,76.33
2023-02-27T16:10:47.807Z,76.57
2023-02-27T16:13:32.061Z,76.26
2023-02-27T16:16:00.571Z,74.75
2023-02-27T16:18:32.033Z,75.31
2023-02-27T16:21:09.597Z,75.07
2023-02-27T16:23:36.289Z,74.90
2023-02-27T16:26:40.638Z,75.44
2023-02-27T16:29:19.349Z,75.76
2023-02-27T16:31:49.414Z,75.04
2023-02-27T16:34:44.705Z,75.72
2023-02-27T16:37:32.264Z,76.00
2023-02-27T16:39:58.997Z,75.46
2023-02-27T16:42:26.122Z,76.22
2023-02-27T16:44:53.327Z,76.50
2023-02-27T16:47:20.461Z,76.78
2023-02-27T16:49:50.893Z,76.49
2023-02-27T16:52:17.487Z,77.05
2023-02-27T16:54:44.067Z,77.13
2023-02-27T16:57:11.586Z,77.58
2023-02-27T16:59:40.458Z,77.47
2023-02-27T17:02:15.244Z,77.78
2023-02-27T17:04:44.564Z,77.72
2023-02-27T17:07:15.978Z,78.25
2023-02-27T17:09:44.412Z,78.20
2023-02-27T17:12:11.079Z,78.27
2023-02-27T17:14:38.105Z,78.88
2023-02-27T17:17:05.805Z,78.65
2023-02-27T17:19:33.463Z,78.66
2023-02-27T17:22:00.162Z,78.78
2023-02-27T17:24:27.072Z,79.03
2023-02-27T17:26:53.707Z,78.96
2023-02-27T17:29:20.720Z,79.12
2023-02-27T17:31:47.418Z,79.18
2023-02-27T17:34:16.945Z,80.08
2023-02-27T17:36:43.971Z,79.81
2023-02-27T17:39:14.993Z,80.15
2023-02-27T17:41:42.706Z,79.32
2023-02-27T17:44:12.845Z,80.20
2023-02-27T17:46:39.859Z,81.29
2023-02-27T17:49:07.076Z,81.36
2023-02-27T17:51:34.414Z,81.91
2023-02-27T17:54:03.186Z,81.86
2023-02-27T17:56:34.589Z,82.13
2023-02-27T17:59:03.418Z,83.03
2023-02-27T18:01:30.264Z,83.62
2023-02-27T18:03:57.196Z,84.06
2023-02-27T18:06:24.879Z,84.19
2023-02-27T18:08:51.596Z,84.50
2023-02-27T18:11:23.314Z,84.74
2023-02-27T18:13:50.714Z,84.88
2023-02-27T18:16:18.322Z,85.42
2023-02-27T18:18:45.281Z,85.75
2023-02-27T18:21:20.914Z,85.30
2023-02-27T18:23:47.993Z,85.83
2023-02-27T18:26:28.935Z,85.76
2023-02-27T18:29:02.303Z,85.32
2023-02-27T18:31:38.039Z,85.40
2023-02-27T18:34:05.442Z,86.06
2023-02-27T18:36:36.852Z,87.05
2023-02-27T18:39:05.192Z,87.19
2023-02-27T18:41:32.360Z,86.80
2023-02-27T18:43:59.087Z,85.18
2023-02-27T18:46:25.871Z,84.38
2023-02-27T18:48:52.683Z,84.92
2023-02-27T18:51:20.035Z,84.49
2023-02-27T18:53:49.019Z,83.83
2023-02-27T18:56:18.512Z,85.09
2023-02-27T18:58:45.117Z,84.47
2023-02-27T19:01:23.639Z,84.45
2023-02-27T19:03:55.183Z,85.08
2023-02-27T19:06:21.876Z,85.74
2023-02-27T19:08:48.518Z,86.24
2023-02-27T19:11:29.770Z,86.82
2023-02-27T19:13:57.844Z,86.72
2023-02-27T19:16:24.459Z,87.41
2023-02-27T19:18:51.100Z,87.60
2023-02-27T19:21:17.942Z,88.51
2023-02-27T19:23:44.535Z,89.19
2023-02-27T19:26:11.424Z,89.60
2023-02-27T19:28:38.044Z,91.15
2023-02-27T19:31:09.432Z,91.38
2023-02-27T19:33:36.877Z,91.77
2023-02-27T19:36:10.724Z,91.32
2023-02-27T19:38:37.545Z,90.88
2023-02-27T19:41:05.426Z,92.28
2023-02-27T19:43:32.489Z,92.53
2023-02-27T19:45:59.189Z,93.22
2023-02-27T19:48:25.929Z,93.94
2023-02-27T19:50:52.664Z,93.87
2023-02-27T19:53:19.307Z,93.84
2023-02-27T19:55:45.912Z,94.11
2023-02-27T19:58:12.761Z,93.55
2023-02-27T20:00:40.186Z,93.77
2023-02-27T20:03:06.932Z,93.76
2023-02-27T20:05:37.908Z,94.38
2023-02-27T20:08:05.052Z,94.39
2023-02-27T20:10:34.659Z,93.72
2023-02-27T20:13:01.215Z,94.31
2023-02-27T20:15:27.885Z,94.81
2023-02-27T20:17:55.103Z,94.53
2023-02-27T20:20:21.755Z,93.89
2023-02-27T20:22:49.347Z,94.24
2023-02-27T20:25:16.282Z,95.11
2023-02-27T20:27:43.214Z,95.22
2023-02-27T20:30:11.269Z,95.15
2023-02-27T20:32:38.067Z,95.52
2023-02-27T20:35:06.946Z,95.40
2023-02-27T20:37:35.690Z,94.81
2023-02-27T20:40:04.296Z,94.49
2023-02-27T20:42:31.074Z,95.78
2023-02-27T20:44:57.648Z,96.04
2023-02-27T20:47:24.278Z,95.57
2023-02-27T20:49:50.945Z,95.28
2023-02-27T20:52:17.768Z,96.02
2023-02-27T20:54:44.426Z,96.49
2023-02-27T20:57:11.014Z,95.57
2023-02-27T20:59:37.717Z,95.36
2023-02-27T21:02:06.916Z,94.74
2023-02-27T21:04:43.148Z,95.17
2023-02-27T21:07:14.415Z,93.95
2023-02-27T21:09:41.295Z,94.05
2023-02-27T21:12:12.147Z,94.05
2023-02-27T21:14:39.054Z,93.33
2023-02-27T21:17:08.754Z,93.56
2023-02-27T21:19:35.471Z,92.91
2023-02-27T21:22:02.064Z,92.68
2023-02-27T21:24:32.250Z,91.91
2023-02-27T21:26:59.537Z,91.67
2023-02-27T21:29:26.384Z,92.05
2023-02-27T21:31:53.140Z,92.35
2023-02-27T21:34:25.891Z,92.47
2023-02-27T21:36:53.676Z,92.08
2023-02-27T21:39:26.099Z,91.96
2023-02-27T21:41:53.160Z,92.91
2023-02-27T21:44:21.559Z,91.88
2023-02-27T21:46:48.667Z,91.96
2023-02-27T21:49:17.414Z,91.59
2023-02-27T21:51:44.477Z,91.41
2023-02-27T21:54:13.410Z,91.92
2023-02-27T21:56:40.750Z,91.34
2023-02-27T21:59:07.757Z,92.12
2023-02-27T22:01:35.133Z,91.57
2023-02-27T22:04:02.198Z,91.70
2023-02-27T22:06:34.256Z,90.92
2023-02-27T22:09:04.613Z,91.21
2023-02-27T22:11:32.410Z,91.63
2023-02-27T22:13:58.976Z,91.61
2023-02-27T22:16:25.736Z,92.05
2023-02-27T22:18:52.409Z,92.43
2023-02-27T22:21:22.232Z,92.33
2023-02-27T22:23:49.093Z,91.92
2023-02-27T22:26:18.310Z,91.62
2023-02-27T22:28:45.124Z,91.25
2023-02-27T22:31:14.328Z,91.20
2023-02-27T22:33:42.656Z,91.51
2023-02-27T22:36:11.785Z,91.79
2023-02-27T22:38:38.583Z,91.92
2023-02-27T22:41:08.046Z,92.64
2023-02-27T22:43:35.057Z,92.41
2023-02-27T22:46:02.542Z,92.02
2023-02-27T22:48:29.186Z,92.15
2023-02-27T22:51:07.532Z,92.65
2023-02-27T22:53:38.623Z,92.48
2023-02-27T22:56:10.943Z,92.24
2023-02-27T22:58:39.164Z,92.24
2023-02-27T23:01:20.784Z,92.37
2023-02-27T23:03:49.871Z,92.92
2023-02-27T23:06:20.745Z,93.46
2023-02-27T23:08:47.876Z,94.12
2023-02-27T23:11:15.340Z,93.25
2023-02-27T23:13:42.392Z,93.44
2023-02-27T23:16:13.646Z,93.39
2023-02-27T23:18:41.848Z,92.96
2023-02-27T23:21:09.695Z,93.12
2023-02-27T23:23:36.808Z,92.91
2023-02-27T23:26:04.830Z,93.37
2023-02-27T23:28:31.911Z,93.37
2023-02-27T23:30:59.758Z,93.55
2023-02-27T23:33:27.495Z,93.29
2023-02-27T23:35:54.250Z,93.80
2023-02-27T23:38:21.363Z,94.15
2023-02-27T23:40:48.231Z,94.15
2023-02-27T23:43:15.098Z,94.61
2023-02-27T23:45:41.928Z,94.29
2023-02-27T23:48:08.894Z,93.66
2023-02-27T23:50:37.938Z,93.99
2023-02-27T23:53:05.429Z,93.91
2023-02-27T23:55:34.211Z,94.28
2023-02-27T23:58:02.155Z,93.90
